<?xml version="1.0" encoding="UTF-8" standalone="no" ?>
<gpx xmlns="http://www.topografix.com/GPX/1/1" xmlns:xsi="http://www.w3.org/2001/XMLSchema-instance" xsi:schemaLocation="http://www.topografix.com/GPX/1/1 http://www.topografix.com/GPX/1/1/gpx.xsd" version="1.1" creator="VisuGPX - https://www.visugpx.com">
  <metadata>
    <name>grande_boucle_montrésor</name>
    <desc><![CDATA[MONTRESOR GENILLE CERE LA RONDE GENILLE]]></desc>
  </metadata>
  <wpt lat="47.18557" lon="1.11027">
    <ele>87.1</ele>
    <name><![CDATA[barres d'attaches chevaux]]></name>
    <type><![CDATA[user]]></type>
  </wpt>
  <wpt lat="47.15718" lon="1.20272">
    <ele>111.5</ele>
    <name><![CDATA[route groudronnée très en pente]]></name>
    <type><![CDATA[user]]></type>
  </wpt>
  <trk>
    <name><![CDATA[8086939-Boucle équestre Loché 001]]></name>
    <trkseg>
      <trkpt lat="47.14176" lon="1.13074">
        <ele>115</ele>
        <time>2017-12-22T15:49:19Z</time>
      </trkpt>
      <trkpt lat="47.14135" lon="1.13072">
        <ele>119</ele>
        <time>2017-12-22T15:50:19Z</time>
      </trkpt>
      <trkpt lat="47.14072" lon="1.13041">
        <ele>122</ele>
        <time>2017-12-22T15:51:19Z</time>
      </trkpt>
      <trkpt lat="47.13736" lon="1.12908">
        <ele>129</ele>
        <time>2017-12-22T15:52:19Z</time>
      </trkpt>
      <trkpt lat="47.13652" lon="1.12883">
        <ele>129</ele>
        <time>2017-12-22T15:53:19Z</time>
      </trkpt>
      <trkpt lat="47.1356" lon="1.12829">
        <ele>131</ele>
        <time>2017-12-22T15:54:19Z</time>
      </trkpt>
      <trkpt lat="47.13488" lon="1.12707">
        <ele>140</ele>
        <time>2017-12-22T15:55:19Z</time>
      </trkpt>
      <trkpt lat="47.13364" lon="1.12537">
        <ele>143</ele>
        <time>2017-12-22T15:56:19Z</time>
      </trkpt>
      <trkpt lat="47.13256" lon="1.12385">
        <ele>144</ele>
        <time>2017-12-22T15:57:19Z</time>
      </trkpt>
      <trkpt lat="47.13221" lon="1.1234">
        <ele>149</ele>
        <time>2017-12-22T15:58:19Z</time>
      </trkpt>
      <trkpt lat="47.12974" lon="1.12473">
        <ele>139</ele>
        <time>2017-12-22T15:59:19Z</time>
      </trkpt>
      <trkpt lat="47.12966" lon="1.12531">
        <ele>135</ele>
        <time>2017-12-22T16:00:19Z</time>
      </trkpt>
      <trkpt lat="47.12941" lon="1.1255">
        <ele>136</ele>
        <time>2017-12-22T16:01:19Z</time>
      </trkpt>
      <trkpt lat="47.12919" lon="1.12582">
        <ele>137</ele>
        <time>2017-12-22T16:02:19Z</time>
      </trkpt>
      <trkpt lat="47.12923" lon="1.12625">
        <ele>139</ele>
        <time>2017-12-22T16:03:19Z</time>
      </trkpt>
      <trkpt lat="47.12941" lon="1.12702">
        <ele>140</ele>
        <time>2017-12-22T16:04:19Z</time>
      </trkpt>
      <trkpt lat="47.12938" lon="1.12745">
        <ele>143</ele>
        <time>2017-12-22T16:05:19Z</time>
      </trkpt>
      <trkpt lat="47.12972" lon="1.12786">
        <ele>140</ele>
        <time>2017-12-22T16:06:19Z</time>
      </trkpt>
      <trkpt lat="47.13138" lon="1.1308">
        <ele>131</ele>
        <time>2017-12-22T16:07:19Z</time>
      </trkpt>
      <trkpt lat="47.13214" lon="1.132">
        <ele>127</ele>
        <time>2017-12-22T16:08:19Z</time>
      </trkpt>
      <trkpt lat="47.13046" lon="1.13509">
        <ele>150</ele>
        <time>2017-12-22T16:09:19Z</time>
      </trkpt>
      <trkpt lat="47.12818" lon="1.13722">
        <ele>136</ele>
        <time>2017-12-22T16:10:19Z</time>
      </trkpt>
      <trkpt lat="47.12777" lon="1.14022">
        <ele>119</ele>
        <time>2017-12-22T16:11:19Z</time>
      </trkpt>
      <trkpt lat="47.12757" lon="1.14065">
        <ele>121</ele>
        <time>2017-12-22T16:12:19Z</time>
      </trkpt>
      <trkpt lat="47.12766" lon="1.14132">
        <ele>128</ele>
        <time>2017-12-22T16:13:19Z</time>
      </trkpt>
      <trkpt lat="47.12761" lon="1.14179">
        <ele>133</ele>
        <time>2017-12-22T16:14:19Z</time>
      </trkpt>
      <trkpt lat="47.12709" lon="1.14559">
        <ele>139</ele>
        <time>2017-12-22T16:15:19Z</time>
      </trkpt>
      <trkpt lat="47.12037" lon="1.14134">
        <ele>143</ele>
        <time>2017-12-22T16:16:19Z</time>
      </trkpt>
      <trkpt lat="47.11931" lon="1.14968">
        <ele>142</ele>
        <time>2017-12-22T16:17:19Z</time>
      </trkpt>
      <trkpt lat="47.12014" lon="1.15389">
        <ele>130</ele>
        <time>2017-12-22T16:18:19Z</time>
      </trkpt>
      <trkpt lat="47.11928" lon="1.15509">
        <ele>132</ele>
        <time>2017-12-22T16:19:19Z</time>
      </trkpt>
      <trkpt lat="47.11916" lon="1.15539">
        <ele>132</ele>
        <time>2017-12-22T16:20:19Z</time>
      </trkpt>
      <trkpt lat="47.11884" lon="1.1558">
        <ele>132</ele>
        <time>2017-12-22T16:21:19Z</time>
      </trkpt>
      <trkpt lat="47.1186" lon="1.15612">
        <ele>133</ele>
        <time>2017-12-22T16:22:19Z</time>
      </trkpt>
      <trkpt lat="47.11733" lon="1.15556">
        <ele>134</ele>
        <time>2017-12-22T16:23:19Z</time>
      </trkpt>
      <trkpt lat="47.11713" lon="1.15698">
        <ele>132</ele>
        <time>2017-12-22T16:24:19Z</time>
      </trkpt>
      <trkpt lat="47.1163" lon="1.1582">
        <ele>124</ele>
        <time>2017-12-22T16:25:19Z</time>
      </trkpt>
      <trkpt lat="47.11574" lon="1.15895">
        <ele>120</ele>
        <time>2017-12-22T16:26:19Z</time>
      </trkpt>
      <trkpt lat="47.11525" lon="1.15947">
        <ele>120</ele>
        <time>2017-12-22T16:27:19Z</time>
      </trkpt>
      <trkpt lat="47.11485" lon="1.16013">
        <ele>121</ele>
        <time>2017-12-22T16:28:19Z</time>
      </trkpt>
      <trkpt lat="47.11311" lon="1.16254">
        <ele>122</ele>
        <time>2017-12-22T16:29:19Z</time>
      </trkpt>
      <trkpt lat="47.11167" lon="1.16432">
        <ele>126</ele>
        <time>2017-12-22T16:30:19Z</time>
      </trkpt>
      <trkpt lat="47.11143" lon="1.16455">
        <ele>123</ele>
        <time>2017-12-22T16:31:19Z</time>
      </trkpt>
      <trkpt lat="47.10986" lon="1.165">
        <ele>120</ele>
        <time>2017-12-22T16:32:19Z</time>
      </trkpt>
      <trkpt lat="47.10945" lon="1.16518">
        <ele>120</ele>
        <time>2017-12-22T16:33:19Z</time>
      </trkpt>
      <trkpt lat="47.10894" lon="1.16522">
        <ele>121</ele>
        <time>2017-12-22T16:34:19Z</time>
      </trkpt>
      <trkpt lat="47.10841" lon="1.16554">
        <ele>121</ele>
        <time>2017-12-22T16:35:19Z</time>
      </trkpt>
      <trkpt lat="47.10764" lon="1.16601">
        <ele>120</ele>
        <time>2017-12-22T16:36:19Z</time>
      </trkpt>
      <trkpt lat="47.10727" lon="1.16621">
        <ele>118</ele>
        <time>2017-12-22T16:37:19Z</time>
      </trkpt>
      <trkpt lat="47.10659" lon="1.16646">
        <ele>117</ele>
        <time>2017-12-22T16:38:19Z</time>
      </trkpt>
      <trkpt lat="47.10632" lon="1.16698">
        <ele>117</ele>
        <time>2017-12-22T16:39:19Z</time>
      </trkpt>
      <trkpt lat="47.10629" lon="1.16747">
        <ele>117</ele>
        <time>2017-12-22T16:40:19Z</time>
      </trkpt>
      <trkpt lat="47.10615" lon="1.16721">
        <ele>117</ele>
        <time>2017-12-22T16:41:19Z</time>
      </trkpt>
      <trkpt lat="47.10599" lon="1.16691">
        <ele>116</ele>
        <time>2017-12-22T16:42:19Z</time>
      </trkpt>
      <trkpt lat="47.10586" lon="1.16666">
        <ele>116</ele>
        <time>2017-12-22T16:43:19Z</time>
      </trkpt>
      <trkpt lat="47.10574" lon="1.16623">
        <ele>115</ele>
        <time>2017-12-22T16:44:19Z</time>
      </trkpt>
      <trkpt lat="47.10542" lon="1.16597">
        <ele>115</ele>
        <time>2017-12-22T16:45:19Z</time>
      </trkpt>
      <trkpt lat="47.10513" lon="1.16558">
        <ele>115</ele>
        <time>2017-12-22T16:46:19Z</time>
      </trkpt>
      <trkpt lat="47.10485" lon="1.16522">
        <ele>116</ele>
        <time>2017-12-22T16:47:19Z</time>
      </trkpt>
      <trkpt lat="47.1045" lon="1.16473">
        <ele>116</ele>
        <time>2017-12-22T16:48:19Z</time>
      </trkpt>
      <trkpt lat="47.10428" lon="1.16432">
        <ele>115</ele>
        <time>2017-12-22T16:49:19Z</time>
      </trkpt>
      <trkpt lat="47.10385" lon="1.1643">
        <ele>115</ele>
        <time>2017-12-22T16:50:19Z</time>
      </trkpt>
      <trkpt lat="47.10352" lon="1.16449">
        <ele>115</ele>
        <time>2017-12-22T16:51:19Z</time>
      </trkpt>
      <trkpt lat="47.10304" lon="1.16477">
        <ele>115</ele>
        <time>2017-12-22T16:52:19Z</time>
      </trkpt>
      <trkpt lat="47.10261" lon="1.165">
        <ele>115</ele>
        <time>2017-12-22T16:53:19Z</time>
      </trkpt>
      <trkpt lat="47.10226" lon="1.16509">
        <ele>116</ele>
        <time>2017-12-22T16:54:19Z</time>
      </trkpt>
      <trkpt lat="47.10185" lon="1.16505">
        <ele>117</ele>
        <time>2017-12-22T16:55:19Z</time>
      </trkpt>
      <trkpt lat="47.10143" lon="1.16507">
        <ele>118</ele>
        <time>2017-12-22T16:56:19Z</time>
      </trkpt>
      <trkpt lat="47.10121" lon="1.1653">
        <ele>117</ele>
        <time>2017-12-22T16:57:19Z</time>
      </trkpt>
      <trkpt lat="47.10102" lon="1.16526">
        <ele>117</ele>
        <time>2017-12-22T16:58:19Z</time>
      </trkpt>
      <trkpt lat="47.10079" lon="1.16507">
        <ele>117</ele>
        <time>2017-12-22T16:59:19Z</time>
      </trkpt>
      <trkpt lat="47.10036" lon="1.16494">
        <ele>117</ele>
        <time>2017-12-22T17:00:19Z</time>
      </trkpt>
      <trkpt lat="47.09995" lon="1.16503">
        <ele>117</ele>
        <time>2017-12-22T17:01:19Z</time>
      </trkpt>
      <trkpt lat="47.09952" lon="1.1652">
        <ele>118</ele>
        <time>2017-12-22T17:02:19Z</time>
      </trkpt>
      <trkpt lat="47.09896" lon="1.16546">
        <ele>119</ele>
        <time>2017-12-22T17:03:19Z</time>
      </trkpt>
      <trkpt lat="47.09855" lon="1.16556">
        <ele>118</ele>
        <time>2017-12-22T17:04:19Z</time>
      </trkpt>
      <trkpt lat="47.09828" lon="1.16636">
        <ele>119</ele>
        <time>2017-12-22T17:05:19Z</time>
      </trkpt>
      <trkpt lat="47.09794" lon="1.16702">
        <ele>120</ele>
        <time>2017-12-22T17:06:19Z</time>
      </trkpt>
      <trkpt lat="47.09747" lon="1.16807">
        <ele>121</ele>
        <time>2017-12-22T17:07:19Z</time>
      </trkpt>
      <trkpt lat="47.09702" lon="1.1688">
        <ele>122</ele>
        <time>2017-12-22T17:08:19Z</time>
      </trkpt>
      <trkpt lat="47.09671" lon="1.16912">
        <ele>122</ele>
        <time>2017-12-22T17:09:19Z</time>
      </trkpt>
      <trkpt lat="47.09551" lon="1.16814">
        <ele>130</ele>
        <time>2017-12-22T17:10:19Z</time>
      </trkpt>
      <trkpt lat="47.09408" lon="1.16689">
        <ele>131</ele>
        <time>2017-12-22T17:11:19Z</time>
      </trkpt>
      <trkpt lat="47.09078" lon="1.16698">
        <ele>133</ele>
        <time>2017-12-22T17:12:19Z</time>
      </trkpt>
      <trkpt lat="47.09037" lon="1.16691">
        <ele>133</ele>
        <time>2017-12-22T17:13:19Z</time>
      </trkpt>
      <trkpt lat="47.08768" lon="1.16698">
        <ele>138</ele>
        <time>2017-12-22T17:14:19Z</time>
      </trkpt>
      <trkpt lat="47.08716" lon="1.16734">
        <ele>137</ele>
        <time>2017-12-22T17:15:19Z</time>
      </trkpt>
      <trkpt lat="47.08631" lon="1.16782">
        <ele>138</ele>
        <time>2017-12-22T17:16:19Z</time>
      </trkpt>
      <trkpt lat="47.08675" lon="1.16887">
        <ele>141</ele>
        <time>2017-12-22T17:17:19Z</time>
      </trkpt>
      <trkpt lat="47.08678" lon="1.1693">
        <ele>141</ele>
        <time>2017-12-22T17:18:19Z</time>
      </trkpt>
      <trkpt lat="47.0866" lon="1.17022">
        <ele>140</ele>
        <time>2017-12-22T17:19:19Z</time>
      </trkpt>
      <trkpt lat="47.08649" lon="1.1708">
        <ele>140</ele>
        <time>2017-12-22T17:20:19Z</time>
      </trkpt>
      <trkpt lat="47.08624" lon="1.17163">
        <ele>140</ele>
        <time>2017-12-22T17:21:19Z</time>
      </trkpt>
      <trkpt lat="47.08589" lon="1.1723">
        <ele>139</ele>
        <time>2017-12-22T17:22:19Z</time>
      </trkpt>
      <trkpt lat="47.08586" lon="1.1729">
        <ele>139</ele>
        <time>2017-12-22T17:23:19Z</time>
      </trkpt>
      <trkpt lat="47.08538" lon="1.1741">
        <ele>138</ele>
        <time>2017-12-22T17:24:19Z</time>
      </trkpt>
      <trkpt lat="47.08527" lon="1.17447">
        <ele>138</ele>
        <time>2017-12-22T17:25:19Z</time>
      </trkpt>
      <trkpt lat="47.08504" lon="1.17801">
        <ele>145</ele>
        <time>2017-12-22T17:26:19Z</time>
      </trkpt>
      <trkpt lat="47.08538" lon="1.17837">
        <ele>145</ele>
        <time>2017-12-22T17:27:19Z</time>
      </trkpt>
      <trkpt lat="47.08567" lon="1.17857">
        <ele>145</ele>
        <time>2017-12-22T17:28:19Z</time>
      </trkpt>
      <trkpt lat="47.08608" lon="1.1791">
        <ele>147</ele>
        <time>2017-12-22T17:29:19Z</time>
      </trkpt>
      <trkpt lat="47.08694" lon="1.17945">
        <ele>148</ele>
        <time>2017-12-22T17:30:19Z</time>
      </trkpt>
      <trkpt lat="47.08757" lon="1.1797">
        <ele>148</ele>
        <time>2017-12-22T17:31:19Z</time>
      </trkpt>
      <trkpt lat="47.08799" lon="1.1797">
        <ele>148</ele>
        <time>2017-12-22T17:32:19Z</time>
      </trkpt>
      <trkpt lat="47.08847" lon="1.17992">
        <ele>147</ele>
        <time>2017-12-22T17:33:19Z</time>
      </trkpt>
      <trkpt lat="47.08879" lon="1.18067">
        <ele>147</ele>
        <time>2017-12-22T17:34:19Z</time>
      </trkpt>
      <trkpt lat="47.08893" lon="1.18116">
        <ele>146</ele>
        <time>2017-12-22T17:35:19Z</time>
      </trkpt>
      <trkpt lat="47.08853" lon="1.18138">
        <ele>148</ele>
        <time>2017-12-22T17:36:19Z</time>
      </trkpt>
      <trkpt lat="47.08808" lon="1.18153">
        <ele>149</ele>
        <time>2017-12-22T17:37:19Z</time>
      </trkpt>
      <trkpt lat="47.08746" lon="1.18163">
        <ele>150</ele>
        <time>2017-12-22T17:38:19Z</time>
      </trkpt>
      <trkpt lat="47.0871" lon="1.18172">
        <ele>150</ele>
        <time>2017-12-22T17:39:19Z</time>
      </trkpt>
      <trkpt lat="47.0864" lon="1.18208">
        <ele>151</ele>
        <time>2017-12-22T17:40:19Z</time>
      </trkpt>
      <trkpt lat="47.08577" lon="1.18226">
        <ele>152</ele>
        <time>2017-12-22T17:41:19Z</time>
      </trkpt>
      <trkpt lat="47.08536" lon="1.18215">
        <ele>151</ele>
        <time>2017-12-22T17:42:19Z</time>
      </trkpt>
      <trkpt lat="47.08491" lon="1.18198">
        <ele>151</ele>
        <time>2017-12-22T17:43:19Z</time>
      </trkpt>
      <trkpt lat="47.08431" lon="1.18174">
        <ele>151</ele>
        <time>2017-12-22T17:44:19Z</time>
      </trkpt>
      <trkpt lat="47.08412" lon="1.18189">
        <ele>151</ele>
        <time>2017-12-22T17:45:19Z</time>
      </trkpt>
      <trkpt lat="47.08371" lon="1.18264">
        <ele>151</ele>
        <time>2017-12-22T17:46:19Z</time>
      </trkpt>
      <trkpt lat="47.08356" lon="1.18299">
        <ele>151</ele>
        <time>2017-12-22T17:47:19Z</time>
      </trkpt>
      <trkpt lat="47.08343" lon="1.18331">
        <ele>151</ele>
        <time>2017-12-22T17:48:19Z</time>
      </trkpt>
      <trkpt lat="47.0831" lon="1.18395">
        <ele>151</ele>
        <time>2017-12-22T17:49:19Z</time>
      </trkpt>
      <trkpt lat="47.0826" lon="1.18567">
        <ele>151</ele>
        <time>2017-12-22T17:50:19Z</time>
      </trkpt>
      <trkpt lat="47.08245" lon="1.18612">
        <ele>151</ele>
        <time>2017-12-22T17:51:19Z</time>
      </trkpt>
      <trkpt lat="47.08109" lon="1.18796">
        <ele>151</ele>
        <time>2017-12-22T17:52:19Z</time>
      </trkpt>
      <trkpt lat="47.08014" lon="1.18906">
        <ele>150</ele>
        <time>2017-12-22T17:53:19Z</time>
      </trkpt>
      <trkpt lat="47.07898" lon="1.18994">
        <ele>151</ele>
        <time>2017-12-22T17:54:19Z</time>
      </trkpt>
      <trkpt lat="47.078" lon="1.1909">
        <ele>149</ele>
        <time>2017-12-22T17:55:19Z</time>
      </trkpt>
      <trkpt lat="47.07754" lon="1.19105">
        <ele>150</ele>
        <time>2017-12-22T17:56:19Z</time>
      </trkpt>
      <trkpt lat="47.07712" lon="1.1912">
        <ele>150</ele>
        <time>2017-12-22T17:57:19Z</time>
      </trkpt>
      <trkpt lat="47.07623" lon="1.19131">
        <ele>150</ele>
        <time>2017-12-22T17:58:19Z</time>
      </trkpt>
      <trkpt lat="47.07578" lon="1.19176">
        <ele>146</ele>
        <time>2017-12-22T17:59:19Z</time>
      </trkpt>
      <trkpt lat="47.07554" lon="1.19198">
        <ele>145</ele>
        <time>2017-12-22T18:00:19Z</time>
      </trkpt>
      <trkpt lat="47.07529" lon="1.19174">
        <ele>146</ele>
        <time>2017-12-22T18:01:19Z</time>
      </trkpt>
      <trkpt lat="47.07475" lon="1.19161">
        <ele>147</ele>
        <time>2017-12-22T18:02:19Z</time>
      </trkpt>
      <trkpt lat="47.07433" lon="1.19157">
        <ele>149</ele>
        <time>2017-12-22T18:03:19Z</time>
      </trkpt>
      <trkpt lat="47.07393" lon="1.19165">
        <ele>149</ele>
        <time>2017-12-22T18:04:19Z</time>
      </trkpt>
      <trkpt lat="47.07328" lon="1.19193">
        <ele>148</ele>
        <time>2017-12-22T18:05:19Z</time>
      </trkpt>
      <trkpt lat="47.07088" lon="1.19459">
        <ele>140</ele>
        <time>2017-12-22T18:06:19Z</time>
      </trkpt>
      <trkpt lat="47.07063" lon="1.19496">
        <ele>138</ele>
        <time>2017-12-22T18:07:19Z</time>
      </trkpt>
      <trkpt lat="47.07013" lon="1.19492">
        <ele>138</ele>
        <time>2017-12-22T18:08:19Z</time>
      </trkpt>
      <trkpt lat="47.06935" lon="1.19451">
        <ele>140</ele>
        <time>2017-12-22T18:09:19Z</time>
      </trkpt>
      <trkpt lat="47.06859" lon="1.19449">
        <ele>141</ele>
        <time>2017-12-22T18:10:19Z</time>
      </trkpt>
      <trkpt lat="47.06679" lon="1.19414">
        <ele>144</ele>
        <time>2017-12-22T18:11:19Z</time>
      </trkpt>
      <trkpt lat="47.06565" lon="1.19159">
        <ele>149</ele>
        <time>2017-12-22T18:12:19Z</time>
      </trkpt>
      <trkpt lat="47.06435" lon="1.18874">
        <ele>147</ele>
        <time>2017-12-22T18:13:19Z</time>
      </trkpt>
      <trkpt lat="47.06382" lon="1.18773">
        <ele>148</ele>
        <time>2017-12-22T18:14:19Z</time>
      </trkpt>
      <trkpt lat="47.06344" lon="1.18689">
        <ele>150</ele>
        <time>2017-12-22T18:15:19Z</time>
      </trkpt>
      <trkpt lat="47.06291" lon="1.18545">
        <ele>154</ele>
        <time>2017-12-22T18:16:19Z</time>
      </trkpt>
      <trkpt lat="47.06113" lon="1.18176">
        <ele>154</ele>
        <time>2017-12-22T18:17:19Z</time>
      </trkpt>
      <trkpt lat="47.06011" lon="1.18142">
        <ele>153</ele>
        <time>2017-12-22T18:18:19Z</time>
      </trkpt>
      <trkpt lat="47.05958" lon="1.18125">
        <ele>152</ele>
        <time>2017-12-22T18:19:19Z</time>
      </trkpt>
      <trkpt lat="47.05787" lon="1.1808">
        <ele>152</ele>
        <time>2017-12-22T18:20:19Z</time>
      </trkpt>
      <trkpt lat="47.05783" lon="1.18163">
        <ele>153</ele>
        <time>2017-12-22T18:21:19Z</time>
      </trkpt>
      <trkpt lat="47.05765" lon="1.18264">
        <ele>152</ele>
        <time>2017-12-22T18:22:19Z</time>
      </trkpt>
      <trkpt lat="47.05767" lon="1.18406">
        <ele>149</ele>
        <time>2017-12-22T18:23:19Z</time>
      </trkpt>
      <trkpt lat="47.05736" lon="1.18509">
        <ele>148</ele>
        <time>2017-12-22T18:24:19Z</time>
      </trkpt>
      <trkpt lat="47.05729" lon="1.18633">
        <ele>149</ele>
        <time>2017-12-22T18:25:19Z</time>
      </trkpt>
      <trkpt lat="47.05682" lon="1.1873">
        <ele>149</ele>
        <time>2017-12-22T18:26:19Z</time>
      </trkpt>
      <trkpt lat="47.05673" lon="1.18769">
        <ele>148</ele>
        <time>2017-12-22T18:27:19Z</time>
      </trkpt>
      <trkpt lat="47.05666" lon="1.18824">
        <ele>148</ele>
        <time>2017-12-22T18:28:19Z</time>
      </trkpt>
      <trkpt lat="47.0566" lon="1.18917">
        <ele>149</ele>
        <time>2017-12-22T18:29:19Z</time>
      </trkpt>
      <trkpt lat="47.05657" lon="1.19056">
        <ele>145</ele>
        <time>2017-12-22T18:30:19Z</time>
      </trkpt>
      <trkpt lat="47.05536" lon="1.19181">
        <ele>139</ele>
        <time>2017-12-22T18:31:19Z</time>
      </trkpt>
      <trkpt lat="47.0524" lon="1.19479">
        <ele>124</ele>
        <time>2017-12-22T18:32:19Z</time>
      </trkpt>
      <trkpt lat="47.05235" lon="1.19537">
        <ele>124</ele>
        <time>2017-12-22T18:33:19Z</time>
      </trkpt>
      <trkpt lat="47.05268" lon="1.19631">
        <ele>122</ele>
        <time>2017-12-22T18:34:19Z</time>
      </trkpt>
      <trkpt lat="47.05297" lon="1.19723">
        <ele>120</ele>
        <time>2017-12-22T18:35:19Z</time>
      </trkpt>
      <trkpt lat="47.05315" lon="1.19794">
        <ele>119</ele>
        <time>2017-12-22T18:36:19Z</time>
      </trkpt>
      <trkpt lat="47.05343" lon="1.19811">
        <ele>120</ele>
        <time>2017-12-22T18:37:19Z</time>
      </trkpt>
      <trkpt lat="47.05375" lon="1.19824">
        <ele>121</ele>
        <time>2017-12-22T18:38:19Z</time>
      </trkpt>
      <trkpt lat="47.05401" lon="1.19889">
        <ele>120</ele>
        <time>2017-12-22T18:39:19Z</time>
      </trkpt>
      <trkpt lat="47.05449" lon="1.19934">
        <ele>120</ele>
        <time>2017-12-22T18:40:19Z</time>
      </trkpt>
      <trkpt lat="47.0549" lon="1.19981">
        <ele>119</ele>
        <time>2017-12-22T18:41:19Z</time>
      </trkpt>
      <trkpt lat="47.0552" lon="1.19996">
        <ele>119</ele>
        <time>2017-12-22T18:42:19Z</time>
      </trkpt>
      <trkpt lat="47.05683" lon="1.19891">
        <ele>132</ele>
        <time>2017-12-22T18:43:19Z</time>
      </trkpt>
      <trkpt lat="47.05683" lon="1.19927">
        <ele>130</ele>
        <time>2017-12-22T18:44:19Z</time>
      </trkpt>
      <trkpt lat="47.05666" lon="1.20015">
        <ele>124</ele>
        <time>2017-12-22T18:45:19Z</time>
      </trkpt>
      <trkpt lat="47.05805" lon="1.19944">
        <ele>131</ele>
        <time>2017-12-22T18:46:19Z</time>
      </trkpt>
      <trkpt lat="47.05879" lon="1.19889">
        <ele>133</ele>
        <time>2017-12-22T18:47:19Z</time>
      </trkpt>
      <trkpt lat="47.05948" lon="1.19837">
        <ele>134</ele>
        <time>2017-12-22T18:48:19Z</time>
      </trkpt>
      <trkpt lat="47.05984" lon="1.19826">
        <ele>135</ele>
        <time>2017-12-22T18:49:19Z</time>
      </trkpt>
      <trkpt lat="47.06024" lon="1.19826">
        <ele>135</ele>
        <time>2017-12-22T18:50:19Z</time>
      </trkpt>
      <trkpt lat="47.06104" lon="1.19859">
        <ele>136</ele>
        <time>2017-12-22T18:51:19Z</time>
      </trkpt>
      <trkpt lat="47.06163" lon="1.19874">
        <ele>136</ele>
        <time>2017-12-22T18:52:19Z</time>
      </trkpt>
      <trkpt lat="47.06234" lon="1.19917">
        <ele>135</ele>
        <time>2017-12-22T18:53:19Z</time>
      </trkpt>
      <trkpt lat="47.06348" lon="1.19959">
        <ele>134</ele>
        <time>2017-12-22T18:54:19Z</time>
      </trkpt>
      <trkpt lat="47.06455" lon="1.19979">
        <ele>133</ele>
        <time>2017-12-22T18:55:19Z</time>
      </trkpt>
      <trkpt lat="47.06593" lon="1.20002">
        <ele>132</ele>
        <time>2017-12-22T18:56:19Z</time>
      </trkpt>
      <trkpt lat="47.06638" lon="1.20009">
        <ele>134</ele>
        <time>2017-12-22T18:57:19Z</time>
      </trkpt>
      <trkpt lat="47.06693" lon="1.20045">
        <ele>133</ele>
        <time>2017-12-22T18:58:19Z</time>
      </trkpt>
      <trkpt lat="47.06987" lon="1.20238">
        <ele>142</ele>
        <time>2017-12-22T18:59:19Z</time>
      </trkpt>
      <trkpt lat="47.07068" lon="1.20296">
        <ele>142</ele>
        <time>2017-12-22T19:00:19Z</time>
      </trkpt>
      <trkpt lat="47.07225" lon="1.20399">
        <ele>144</ele>
        <time>2017-12-22T19:01:19Z</time>
      </trkpt>
      <trkpt lat="47.07244" lon="1.20444">
        <ele>144</ele>
        <time>2017-12-22T19:02:19Z</time>
      </trkpt>
      <trkpt lat="47.07236" lon="1.20489">
        <ele>145</ele>
        <time>2017-12-22T19:03:19Z</time>
      </trkpt>
      <trkpt lat="47.0724" lon="1.20534">
        <ele>144</ele>
        <time>2017-12-22T19:04:19Z</time>
      </trkpt>
      <trkpt lat="47.0725" lon="1.20573">
        <ele>143</ele>
        <time>2017-12-22T19:05:19Z</time>
      </trkpt>
      <trkpt lat="47.073" lon="1.20582">
        <ele>143</ele>
        <time>2017-12-22T19:06:19Z</time>
      </trkpt>
      <trkpt lat="47.07358" lon="1.20597">
        <ele>142</ele>
        <time>2017-12-22T19:07:19Z</time>
      </trkpt>
      <trkpt lat="47.07385" lon="1.20629">
        <ele>141</ele>
        <time>2017-12-22T19:08:19Z</time>
      </trkpt>
      <trkpt lat="47.07409" lon="1.20704">
        <ele>139</ele>
        <time>2017-12-22T19:09:19Z</time>
      </trkpt>
      <trkpt lat="47.07439" lon="1.2074">
        <ele>138</ele>
        <time>2017-12-22T19:10:19Z</time>
      </trkpt>
      <trkpt lat="47.07478" lon="1.20816">
        <ele>138</ele>
        <time>2017-12-22T19:11:19Z</time>
      </trkpt>
      <trkpt lat="47.07531" lon="1.20901">
        <ele>136</ele>
        <time>2017-12-22T19:12:19Z</time>
      </trkpt>
      <trkpt lat="47.07551" lon="1.20946">
        <ele>136</ele>
        <time>2017-12-22T19:13:19Z</time>
      </trkpt>
      <trkpt lat="47.07589" lon="1.20987">
        <ele>135</ele>
        <time>2017-12-22T19:14:19Z</time>
      </trkpt>
      <trkpt lat="47.07618" lon="1.21037">
        <ele>133</ele>
        <time>2017-12-22T19:15:19Z</time>
      </trkpt>
      <trkpt lat="47.07664" lon="1.21073">
        <ele>132</ele>
        <time>2017-12-22T19:16:19Z</time>
      </trkpt>
      <trkpt lat="47.07687" lon="1.21105">
        <ele>131</ele>
        <time>2017-12-22T19:17:19Z</time>
      </trkpt>
      <trkpt lat="47.07741" lon="1.21131">
        <ele>129</ele>
        <time>2017-12-22T19:18:19Z</time>
      </trkpt>
      <trkpt lat="47.07773" lon="1.21152">
        <ele>128</ele>
        <time>2017-12-22T19:19:19Z</time>
      </trkpt>
      <trkpt lat="47.07811" lon="1.21208">
        <ele>126</ele>
        <time>2017-12-22T19:20:19Z</time>
      </trkpt>
      <trkpt lat="47.07887" lon="1.21292">
        <ele>122</ele>
        <time>2017-12-22T19:21:19Z</time>
      </trkpt>
      <trkpt lat="47.07979" lon="1.2141">
        <ele>117</ele>
        <time>2017-12-22T19:22:19Z</time>
      </trkpt>
      <trkpt lat="47.08016" lon="1.21468">
        <ele>118</ele>
        <time>2017-12-22T19:23:19Z</time>
      </trkpt>
      <trkpt lat="47.08136" lon="1.21715">
        <ele>123</ele>
        <time>2017-12-22T19:24:19Z</time>
      </trkpt>
      <trkpt lat="47.08191" lon="1.21745">
        <ele>122</ele>
        <time>2017-12-22T19:25:19Z</time>
      </trkpt>
      <trkpt lat="47.0833" lon="1.21792">
        <ele>116</ele>
        <time>2017-12-22T19:26:19Z</time>
      </trkpt>
      <trkpt lat="47.0841" lon="1.21824">
        <ele>113</ele>
        <time>2017-12-22T19:27:19Z</time>
      </trkpt>
      <trkpt lat="47.0846" lon="1.21846">
        <ele>112</ele>
        <time>2017-12-22T19:28:19Z</time>
      </trkpt>
      <trkpt lat="47.08562" lon="1.21837">
        <ele>110</ele>
        <time>2017-12-22T19:29:19Z</time>
      </trkpt>
      <trkpt lat="47.08652" lon="1.21828">
        <ele>112</ele>
        <time>2017-12-22T19:30:19Z</time>
      </trkpt>
      <trkpt lat="47.08716" lon="1.21811">
        <ele>115</ele>
        <time>2017-12-22T19:31:19Z</time>
      </trkpt>
      <trkpt lat="47.08771" lon="1.21783">
        <ele>120</ele>
        <time>2017-12-22T19:32:19Z</time>
      </trkpt>
      <trkpt lat="47.08863" lon="1.21743">
        <ele>124</ele>
        <time>2017-12-22T19:33:19Z</time>
      </trkpt>
      <trkpt lat="47.08955" lon="1.217">
        <ele>124</ele>
        <time>2017-12-22T19:34:19Z</time>
      </trkpt>
      <trkpt lat="47.08926" lon="1.21713">
        <ele>124</ele>
        <time>2017-12-22T19:35:19Z</time>
      </trkpt>
      <trkpt lat="47.08988" lon="1.21682">
        <ele>125</ele>
        <time>2017-12-22T19:36:19Z</time>
      </trkpt>
      <trkpt lat="47.08957" lon="1.21616">
        <ele>126</ele>
        <time>2017-12-22T19:37:19Z</time>
      </trkpt>
      <trkpt lat="47.08917" lon="1.21522">
        <ele>129</ele>
        <time>2017-12-22T19:38:19Z</time>
      </trkpt>
      <trkpt lat="47.08895" lon="1.21431">
        <ele>130</ele>
        <time>2017-12-22T19:39:19Z</time>
      </trkpt>
      <trkpt lat="47.09075" lon="1.21339">
        <ele>134</ele>
        <time>2017-12-22T19:40:19Z</time>
      </trkpt>
      <trkpt lat="47.09062" lon="1.21247">
        <ele>137</ele>
        <time>2017-12-22T19:41:19Z</time>
      </trkpt>
      <trkpt lat="47.09074" lon="1.21137">
        <ele>138</ele>
        <time>2017-12-22T19:42:19Z</time>
      </trkpt>
      <trkpt lat="47.091" lon="1.21125">
        <ele>139</ele>
        <time>2017-12-22T19:43:19Z</time>
      </trkpt>
      <trkpt lat="47.09306" lon="1.21015">
        <ele>139</ele>
        <time>2017-12-22T19:44:19Z</time>
      </trkpt>
      <trkpt lat="47.09337" lon="1.21013">
        <ele>140</ele>
        <time>2017-12-22T19:45:19Z</time>
      </trkpt>
      <trkpt lat="47.09375" lon="1.21028">
        <ele>140</ele>
        <time>2017-12-22T19:46:19Z</time>
      </trkpt>
      <trkpt lat="47.094" lon="1.21007">
        <ele>140</ele>
        <time>2017-12-22T19:47:19Z</time>
      </trkpt>
      <trkpt lat="47.09417" lon="1.20987">
        <ele>140</ele>
        <time>2017-12-22T19:48:19Z</time>
      </trkpt>
      <trkpt lat="47.09429" lon="1.20959">
        <ele>140</ele>
        <time>2017-12-22T19:49:19Z</time>
      </trkpt>
      <trkpt lat="47.0943" lon="1.20912">
        <ele>139</ele>
        <time>2017-12-22T19:50:19Z</time>
      </trkpt>
      <trkpt lat="47.09475" lon="1.20897">
        <ele>137</ele>
        <time>2017-12-22T19:51:19Z</time>
      </trkpt>
      <trkpt lat="47.09516" lon="1.20882">
        <ele>135</ele>
        <time>2017-12-22T19:52:19Z</time>
      </trkpt>
      <trkpt lat="47.09556" lon="1.20843">
        <ele>133</ele>
        <time>2017-12-22T19:53:19Z</time>
      </trkpt>
      <trkpt lat="47.09582" lon="1.20801">
        <ele>130</ele>
        <time>2017-12-22T19:54:19Z</time>
      </trkpt>
      <trkpt lat="47.09605" lon="1.20715">
        <ele>127</ele>
        <time>2017-12-22T19:55:19Z</time>
      </trkpt>
      <trkpt lat="47.09627" lon="1.20672">
        <ele>125</ele>
        <time>2017-12-22T19:56:19Z</time>
      </trkpt>
      <trkpt lat="47.09658" lon="1.20644">
        <ele>123</ele>
        <time>2017-12-22T19:57:19Z</time>
      </trkpt>
      <trkpt lat="47.09711" lon="1.20614">
        <ele>125</ele>
        <time>2017-12-22T19:58:19Z</time>
      </trkpt>
      <trkpt lat="47.09737" lon="1.20599">
        <ele>127</ele>
        <time>2017-12-22T19:59:19Z</time>
      </trkpt>
      <trkpt lat="47.0976" lon="1.20567">
        <ele>129</ele>
        <time>2017-12-22T20:00:19Z</time>
      </trkpt>
      <trkpt lat="47.0979" lon="1.2055">
        <ele>132</ele>
        <time>2017-12-22T20:01:19Z</time>
      </trkpt>
      <trkpt lat="47.09829" lon="1.20513">
        <ele>135</ele>
        <time>2017-12-22T20:02:19Z</time>
      </trkpt>
      <trkpt lat="47.09868" lon="1.20481">
        <ele>136</ele>
        <time>2017-12-22T20:03:19Z</time>
      </trkpt>
      <trkpt lat="47.09901" lon="1.20449">
        <ele>137</ele>
        <time>2017-12-22T20:04:19Z</time>
      </trkpt>
      <trkpt lat="47.09933" lon="1.20412">
        <ele>138</ele>
        <time>2017-12-22T20:05:19Z</time>
      </trkpt>
      <trkpt lat="47.09928" lon="1.20344">
        <ele>139</ele>
        <time>2017-12-22T20:06:19Z</time>
      </trkpt>
      <trkpt lat="47.09959" lon="1.2032">
        <ele>138</ele>
        <time>2017-12-22T20:07:19Z</time>
      </trkpt>
      <trkpt lat="47.10009" lon="1.20303">
        <ele>136</ele>
        <time>2017-12-22T20:08:19Z</time>
      </trkpt>
      <trkpt lat="47.10067" lon="1.20286">
        <ele>133</ele>
        <time>2017-12-22T20:09:19Z</time>
      </trkpt>
      <trkpt lat="47.10107" lon="1.20279">
        <ele>131</ele>
        <time>2017-12-22T20:10:19Z</time>
      </trkpt>
      <trkpt lat="47.10147" lon="1.20268">
        <ele>129</ele>
        <time>2017-12-22T20:11:19Z</time>
      </trkpt>
      <trkpt lat="47.10193" lon="1.20247">
        <ele>128</ele>
        <time>2017-12-22T20:12:19Z</time>
      </trkpt>
      <trkpt lat="47.10223" lon="1.20234">
        <ele>127</ele>
        <time>2017-12-22T20:13:19Z</time>
      </trkpt>
      <trkpt lat="47.10254" lon="1.20219">
        <ele>127</ele>
        <time>2017-12-22T20:14:19Z</time>
      </trkpt>
      <trkpt lat="47.10288" lon="1.20221">
        <ele>125</ele>
        <time>2017-12-22T20:15:19Z</time>
      </trkpt>
      <trkpt lat="47.1032" lon="1.20223">
        <ele>123</ele>
        <time>2017-12-22T20:16:19Z</time>
      </trkpt>
      <trkpt lat="47.10352" lon="1.20213">
        <ele>123</ele>
        <time>2017-12-22T20:17:19Z</time>
      </trkpt>
      <trkpt lat="47.10383" lon="1.20195">
        <ele>123</ele>
        <time>2017-12-22T20:18:19Z</time>
      </trkpt>
      <trkpt lat="47.10429" lon="1.20174">
        <ele>123</ele>
        <time>2017-12-22T20:19:19Z</time>
      </trkpt>
      <trkpt lat="47.10472" lon="1.20148">
        <ele>124</ele>
        <time>2017-12-22T20:20:19Z</time>
      </trkpt>
      <trkpt lat="47.10533" lon="1.20146">
        <ele>124</ele>
        <time>2017-12-22T20:21:19Z</time>
      </trkpt>
      <trkpt lat="47.10556" lon="1.20174">
        <ele>125</ele>
        <time>2017-12-22T20:22:19Z</time>
      </trkpt>
      <trkpt lat="47.10602" lon="1.20183">
        <ele>126</ele>
        <time>2017-12-22T20:23:19Z</time>
      </trkpt>
      <trkpt lat="47.10635" lon="1.20193">
        <ele>127</ele>
        <time>2017-12-22T20:24:19Z</time>
      </trkpt>
      <trkpt lat="47.10688" lon="1.20221">
        <ele>129</ele>
        <time>2017-12-22T20:25:19Z</time>
      </trkpt>
      <trkpt lat="47.10736" lon="1.20245">
        <ele>130</ele>
        <time>2017-12-22T20:26:19Z</time>
      </trkpt>
      <trkpt lat="47.10783" lon="1.20258">
        <ele>131</ele>
        <time>2017-12-22T20:27:19Z</time>
      </trkpt>
      <trkpt lat="47.10894" lon="1.20305">
        <ele>134</ele>
        <time>2017-12-22T20:28:19Z</time>
      </trkpt>
      <trkpt lat="47.10897" lon="1.20236">
        <ele>134</ele>
        <time>2017-12-22T20:29:19Z</time>
      </trkpt>
      <trkpt lat="47.10905" lon="1.20193">
        <ele>135</ele>
        <time>2017-12-22T20:30:19Z</time>
      </trkpt>
      <trkpt lat="47.10924" lon="1.20118">
        <ele>136</ele>
        <time>2017-12-22T20:31:19Z</time>
      </trkpt>
      <trkpt lat="47.1093" lon="1.20062">
        <ele>136</ele>
        <time>2017-12-22T20:32:19Z</time>
      </trkpt>
      <trkpt lat="47.10939" lon="1.20017">
        <ele>137</ele>
        <time>2017-12-22T20:33:19Z</time>
      </trkpt>
      <trkpt lat="47.10939" lon="1.19955">
        <ele>137</ele>
        <time>2017-12-22T20:34:19Z</time>
      </trkpt>
      <trkpt lat="47.10943" lon="1.19882">
        <ele>138</ele>
        <time>2017-12-22T20:35:19Z</time>
      </trkpt>
      <trkpt lat="47.10948" lon="1.19792">
        <ele>140</ele>
        <time>2017-12-22T20:36:19Z</time>
      </trkpt>
      <trkpt lat="47.10958" lon="1.19689">
        <ele>141</ele>
        <time>2017-12-22T20:37:19Z</time>
      </trkpt>
      <trkpt lat="47.11003" lon="1.19296">
        <ele>139</ele>
        <time>2017-12-22T20:38:19Z</time>
      </trkpt>
      <trkpt lat="47.11027" lon="1.19356">
        <ele>139</ele>
        <time>2017-12-22T20:39:19Z</time>
      </trkpt>
      <trkpt lat="47.1105" lon="1.19421">
        <ele>140</ele>
        <time>2017-12-22T20:40:19Z</time>
      </trkpt>
      <trkpt lat="47.11068" lon="1.19472">
        <ele>141</ele>
        <time>2017-12-22T20:41:19Z</time>
      </trkpt>
      <trkpt lat="47.11095" lon="1.1955">
        <ele>141</ele>
        <time>2017-12-22T20:42:19Z</time>
      </trkpt>
      <trkpt lat="47.11114" lon="1.19612">
        <ele>141</ele>
        <time>2017-12-22T20:43:19Z</time>
      </trkpt>
      <trkpt lat="47.11143" lon="1.19655">
        <ele>141</ele>
        <time>2017-12-22T20:44:19Z</time>
      </trkpt>
      <trkpt lat="47.11246" lon="1.1985">
        <ele>141</ele>
        <time>2017-12-22T20:45:19Z</time>
      </trkpt>
      <trkpt lat="47.11272" lon="1.19856">
        <ele>141</ele>
        <time>2017-12-22T20:46:19Z</time>
      </trkpt>
      <trkpt lat="47.11341" lon="1.19949">
        <ele>142</ele>
        <time>2017-12-22T20:47:19Z</time>
      </trkpt>
      <trkpt lat="47.11383" lon="1.19953">
        <ele>142</ele>
        <time>2017-12-22T20:48:19Z</time>
      </trkpt>
      <trkpt lat="47.11457" lon="1.19996">
        <ele>141</ele>
        <time>2017-12-22T20:49:19Z</time>
      </trkpt>
      <trkpt lat="47.11561" lon="1.2006">
        <ele>140</ele>
        <time>2017-12-22T20:50:19Z</time>
      </trkpt>
      <trkpt lat="47.11593" lon="1.20071">
        <ele>140</ele>
        <time>2017-12-22T20:51:19Z</time>
      </trkpt>
      <trkpt lat="47.11631" lon="1.20037">
        <ele>140</ele>
        <time>2017-12-22T20:52:19Z</time>
      </trkpt>
      <trkpt lat="47.11668" lon="1.20011">
        <ele>140</ele>
        <time>2017-12-22T20:53:19Z</time>
      </trkpt>
      <trkpt lat="47.11719" lon="1.19985">
        <ele>140</ele>
        <time>2017-12-22T20:54:19Z</time>
      </trkpt>
      <trkpt lat="47.11811" lon="1.20277">
        <ele>137</ele>
        <time>2017-12-22T20:55:19Z</time>
      </trkpt>
      <trkpt lat="47.11942" lon="1.20277">
        <ele>137</ele>
        <time>2017-12-22T20:56:19Z</time>
      </trkpt>
      <trkpt lat="47.12011" lon="1.20281">
        <ele>134</ele>
        <time>2017-12-22T20:57:19Z</time>
      </trkpt>
      <trkpt lat="47.12065" lon="1.20277">
        <ele>133</ele>
        <time>2017-12-22T20:58:19Z</time>
      </trkpt>
      <trkpt lat="47.12287" lon="1.2026">
        <ele>136</ele>
        <time>2017-12-22T20:59:19Z</time>
      </trkpt>
      <trkpt lat="47.12437" lon="1.20245">
        <ele>137</ele>
        <time>2017-12-22T21:00:19Z</time>
      </trkpt>
      <trkpt lat="47.12569" lon="1.20311">
        <ele>137</ele>
        <time>2017-12-22T21:01:19Z</time>
      </trkpt>
      <trkpt lat="47.12655" lon="1.20346">
        <ele>139</ele>
        <time>2017-12-22T21:02:19Z</time>
      </trkpt>
      <trkpt lat="47.12904" lon="1.20273">
        <ele>134</ele>
        <time>2017-12-22T21:03:19Z</time>
      </trkpt>
      <trkpt lat="47.13011" lon="1.20271">
        <ele>135</ele>
        <time>2017-12-22T21:04:19Z</time>
      </trkpt>
      <trkpt lat="47.13068" lon="1.20271">
        <ele>135</ele>
        <time>2017-12-22T21:05:19Z</time>
      </trkpt>
      <trkpt lat="47.13142" lon="1.20249">
        <ele>133</ele>
        <time>2017-12-22T21:06:19Z</time>
      </trkpt>
      <trkpt lat="47.13215" lon="1.20225">
        <ele>134</ele>
        <time>2017-12-22T21:07:19Z</time>
      </trkpt>
      <trkpt lat="47.13291" lon="1.20208">
        <ele>134</ele>
        <time>2017-12-22T21:08:19Z</time>
      </trkpt>
      <trkpt lat="47.1348" lon="1.20217">
        <ele>130</ele>
        <time>2017-12-22T21:09:19Z</time>
      </trkpt>
      <trkpt lat="47.13544" lon="1.2021">
        <ele>128</ele>
        <time>2017-12-22T21:10:19Z</time>
      </trkpt>
      <trkpt lat="47.13722" lon="1.20198">
        <ele>123</ele>
        <time>2017-12-22T21:11:19Z</time>
      </trkpt>
      <trkpt lat="47.13726" lon="1.20133">
        <ele>124</ele>
        <time>2017-12-22T21:12:19Z</time>
      </trkpt>
      <trkpt lat="47.13744" lon="1.20043">
        <ele>126</ele>
        <time>2017-12-22T21:13:19Z</time>
      </trkpt>
      <trkpt lat="47.13763" lon="1.19955">
        <ele>128</ele>
        <time>2017-12-22T21:14:19Z</time>
      </trkpt>
      <trkpt lat="47.13774" lon="1.19882">
        <ele>130</ele>
        <time>2017-12-22T21:15:19Z</time>
      </trkpt>
      <trkpt lat="47.13777" lon="1.19809">
        <ele>131</ele>
        <time>2017-12-22T21:16:19Z</time>
      </trkpt>
      <trkpt lat="47.13874" lon="1.19844">
        <ele>130</ele>
        <time>2017-12-22T21:17:19Z</time>
      </trkpt>
      <trkpt lat="47.14033" lon="1.19884">
        <ele>126</ele>
        <time>2017-12-22T21:18:19Z</time>
      </trkpt>
      <trkpt lat="47.14265" lon="1.1988">
        <ele>120</ele>
        <time>2017-12-22T21:19:19Z</time>
      </trkpt>
      <trkpt lat="47.14402" lon="1.19876">
        <ele>116</ele>
        <time>2017-12-22T21:20:19Z</time>
      </trkpt>
      <trkpt lat="47.14538" lon="1.19876">
        <ele>112</ele>
        <time>2017-12-22T21:21:19Z</time>
      </trkpt>
      <trkpt lat="47.14635" lon="1.19878">
        <ele>107</ele>
        <time>2017-12-22T21:22:19Z</time>
      </trkpt>
      <trkpt lat="47.14701" lon="1.19893">
        <ele>104</ele>
        <time>2017-12-22T21:23:19Z</time>
      </trkpt>
      <trkpt lat="47.14786" lon="1.19919">
        <ele>100</ele>
        <time>2017-12-22T21:24:19Z</time>
      </trkpt>
      <trkpt lat="47.14824" lon="1.19932">
        <ele>99</ele>
        <time>2017-12-22T21:25:19Z</time>
      </trkpt>
      <trkpt lat="47.14886" lon="1.19974">
        <ele>100</ele>
        <time>2017-12-22T21:26:19Z</time>
      </trkpt>
      <trkpt lat="47.14951" lon="1.19994">
        <ele>101</ele>
        <time>2017-12-22T21:27:19Z</time>
      </trkpt>
      <trkpt lat="47.15019" lon="1.20015">
        <ele>103</ele>
        <time>2017-12-22T21:28:19Z</time>
      </trkpt>
      <trkpt lat="47.15048" lon="1.19893">
        <ele>105</ele>
        <time>2017-12-22T21:29:19Z</time>
      </trkpt>
      <trkpt lat="47.15091" lon="1.1973">
        <ele>106</ele>
        <time>2017-12-22T21:30:19Z</time>
      </trkpt>
      <trkpt lat="47.15104" lon="1.19678">
        <ele>105</ele>
        <time>2017-12-22T21:31:19Z</time>
      </trkpt>
      <trkpt lat="47.15132" lon="1.1961">
        <ele>104</ele>
        <time>2017-12-22T21:32:19Z</time>
      </trkpt>
      <trkpt lat="47.15149" lon="1.19509">
        <ele>103</ele>
        <time>2017-12-22T21:33:19Z</time>
      </trkpt>
      <trkpt lat="47.15193" lon="1.19505">
        <ele>100</ele>
        <time>2017-12-22T21:34:19Z</time>
      </trkpt>
      <trkpt lat="47.15234" lon="1.19511">
        <ele>97</ele>
        <time>2017-12-22T21:35:19Z</time>
      </trkpt>
      <trkpt lat="47.1526" lon="1.19468">
        <ele>96</ele>
        <time>2017-12-22T21:36:19Z</time>
      </trkpt>
      <trkpt lat="47.15283" lon="1.19356">
        <ele>100</ele>
        <time>2017-12-22T21:37:19Z</time>
      </trkpt>
      <trkpt lat="47.15298" lon="1.19314">
        <ele>99</ele>
        <time>2017-12-22T21:38:19Z</time>
      </trkpt>
      <trkpt lat="47.1534" lon="1.19292">
        <ele>94</ele>
        <time>2017-12-22T21:39:19Z</time>
      </trkpt>
    </trkseg>
  </trk>
</gpx>